TimeCDT,TemperatureF,Dew PointF,Humidity,Sea Level PressureIn,VisibilityMPH,Wind Direction,Wind SpeedMPH,Gust SpeedMPH,PrecipitationIn,Events,Conditions,WindDirDegrees,DateUTC
12:15 AM,61.3,35.8,39,30.04,10.0,South,8.1,-,N/A,,Clear,190,2012-09-16 05:15:00
12:35 AM,59.2,36.1,42,30.03,10.0,SSW,8.1,-,N/A,,Clear,200,2012-09-16 05:35:00
12:55 AM,59.2,36.7,43,30.03,10.0,South,8.1,-,N/A,,Clear,190,2012-09-16 05:55:00
1:15 AM,59.0,36.7,43,30.03,10.0,South,9.2,-,N/A,,Clear,190,2012-09-16 06:15:00
1:35 AM,57.9,36.9,45,30.03,10.0,South,6.9,-,N/A,,Clear,190,2012-09-16 06:35:00
1:55 AM,56.5,37.0,48,30.02,10.0,SSW,8.1,-,N/A,,Clear,200,2012-09-16 06:55:00
2:15 AM,56.1,37.4,49,30.03,10.0,South,8.1,-,N/A,,Clear,190,2012-09-16 07:15:00
2:35 AM,55.4,38.1,52,30.02,10.0,South,6.9,-,N/A,,Clear,190,2012-09-16 07:35:00
2:55 AM,54.3,38.8,56,30.02,10.0,South,8.1,-,N/A,,Clear,190,2012-09-16 07:55:00
3:15 AM,54.3,40.1,59,30.02,10.0,SSW,8.1,-,N/A,,Clear,200,2012-09-16 08:15:00
3:35 AM,54.7,42.1,62,30.01,10.0,South,9.2,-,N/A,,Clear,190,2012-09-16 08:35:00
3:55 AM,54.3,43.9,68,30.01,10.0,SSW,8.1,-,N/A,,Clear,200,2012-09-16 08:55:00
4:15 AM,54.0,45.5,73,30.01,10.0,SSW,8.1,-,N/A,,Clear,200,2012-09-16 09:15:00
4:35 AM,53.6,46.4,77,30.00,10.0,SSW,6.9,-,N/A,,Clear,200,2012-09-16 09:35:00
4:55 AM,53.1,47.3,81,30.00,10.0,SSW,8.1,-,N/A,,Clear,200,2012-09-16 09:55:00
5:15 AM,53.1,48.6,85,30.00,10.0,South,9.2,-,N/A,,Clear,190,2012-09-16 10:15:00
5:35 AM,53.8,50.0,87,29.99,10.0,SSW,9.2,-,N/A,,Clear,200,2012-09-16 10:35:00
6:35 AM,52.7,50.2,91,29.99,10.0,SSW,8.1,-,N/A,,Clear,200,2012-09-16 11:35:00
6:55 AM,51.8,50.0,94,29.99,10.0,SSW,8.1,-,N/A,,Clear,200,2012-09-16 11:55:00
7:15 AM,52.0,50.5,95,29.99,10.0,South,8.1,-,N/A,,Clear,190,2012-09-16 12:15:00
7:35 AM,52.2,50.9,95,29.99,10.0,South,10.4,-,N/A,,Clear,190,2012-09-16 12:35:00
8:15 AM,52.7,51.3,95,30.00,10.0,South,6.9,-,N/A,,Clear,190,2012-09-16 13:15:00
8:35 AM,54.3,52.2,92,29.99,10.0,South,5.8,-,N/A,,Clear,190,2012-09-16 13:35:00
8:55 AM,56.1,53.2,90,29.99,10.0,South,6.9,-,N/A,,Clear,190,2012-09-16 13:55:00
9:35 AM,61.7,53.8,75,29.99,10.0,SSW,10.4,-,N/A,,Clear,200,2012-09-16 14:35:00
9:55 AM,63.9,53.4,69,30.00,10.0,WSW,5.8,-,N/A,,Clear,250,2012-09-16 14:55:00
10:15 AM,64.8,52.9,65,30.00,10.0,West,3.5,-,N/A,,Clear,270,2012-09-16 15:15:00
10:35 AM,67.3,52.2,58,30.00,10.0,Calm,Calm,-,N/A,,Clear,0,2012-09-16 15:35:00
10:55 AM,69.4,51.4,53,29.99,10.0,SW,3.5,-,N/A,,Clear,230,2012-09-16 15:55:00
11:15 AM,71.4,50.0,47,29.99,10.0,SW,4.6,-,N/A,,Clear,230,2012-09-16 16:15:00
11:35 AM,73.6,50.2,44,29.98,10.0,SSW,4.6,-,N/A,,Clear,200,2012-09-16 16:35:00
11:55 AM,75.2,49.3,40,29.97,10.0,South,5.8,-,N/A,,Clear,180,2012-09-16 16:55:00
12:15 PM,77.4,46.9,34,29.97,10.0,SSW,6.9,-,N/A,,Clear,200,2012-09-16 17:15:00
12:35 PM,79.3,47.3,32,29.96,10.0,SSE,8.1,-,N/A,,Clear,160,2012-09-16 17:35:00
12:55 PM,80.8,46.9,30,29.95,10.0,South,5.8,-,N/A,,Clear,170,2012-09-16 17:55:00
1:15 PM,80.4,47.3,31,29.95,10.0,SSE,4.6,-,N/A,,Clear,150,2012-09-16 18:15:00
1:35 PM,82.4,47.3,29,29.94,10.0,SSE,5.8,-,N/A,,Clear,150,2012-09-16 18:35:00
1:55 PM,83.5,46.4,27,29.93,10.0,South,8.1,-,N/A,,Clear,170,2012-09-16 18:55:00
2:15 PM,84.4,44.8,25,29.92,10.0,SSE,9.2,-,N/A,,Clear,160,2012-09-16 19:15:00
2:35 PM,85.1,41.7,22,29.91,10.0,SSE,11.5,16.1,N/A,,Clear,150,2012-09-16 19:35:00
2:55 PM,85.5,42.4,22,29.90,10.0,SSE,13.8,18.4,N/A,,Clear,160,2012-09-16 19:55:00
3:15 PM,86.0,40.5,20,29.89,10.0,SSE,12.7,18.4,N/A,,Clear,160,2012-09-16 20:15:00
3:35 PM,85.8,38.3,19,29.88,10.0,SSE,10.4,-,N/A,,Clear,160,2012-09-16 20:35:00
3:55 PM,86.2,38.8,19,29.88,10.0,South,11.5,18.4,N/A,,Clear,180,2012-09-16 20:55:00
4:15 PM,85.6,39.7,20,29.87,10.0,South,10.4,-,N/A,,Clear,170,2012-09-16 21:15:00
4:35 PM,85.1,41.9,22,29.88,10.0,South,15.0,-,N/A,,Clear,170,2012-09-16 21:35:00
4:55 PM,85.1,41.5,22,29.87,10.0,South,13.8,-,N/A,,Clear,180,2012-09-16 21:55:00
5:15 PM,84.6,39.7,20,29.87,10.0,SSE,12.7,-,N/A,,Clear,160,2012-09-16 22:15:00
5:35 PM,83.3,40.5,22,29.86,10.0,South,9.2,-,N/A,,Clear,170,2012-09-16 22:35:00
5:55 PM,83.5,39.2,21,29.86,10.0,South,16.1,-,N/A,,Clear,180,2012-09-16 22:55:00
6:15 PM,82.0,39.0,22,29.86,10.0,South,12.7,-,N/A,,Clear,170,2012-09-16 23:15:00
6:35 PM,81.0,41.9,25,29.87,10.0,South,10.4,16.1,N/A,,Clear,180,2012-09-16 23:35:00
6:55 PM,79.3,41.2,26,29.87,10.0,South,9.2,-,N/A,,Clear,180,2012-09-16 23:55:00
7:15 PM,77.4,42.4,29,29.87,10.0,SSE,8.1,-,N/A,,Clear,160,2012-09-17 00:15:00
7:35 PM,74.3,43.0,33,29.87,10.0,SSE,8.1,-,N/A,,Clear,150,2012-09-17 00:35:00
7:55 PM,74.1,43.7,34,29.87,10.0,SE,9.2,-,N/A,,Clear,140,2012-09-17 00:55:00
8:15 PM,72.9,44.1,36,29.87,10.0,SE,8.1,-,N/A,,Clear,140,2012-09-17 01:15:00
8:35 PM,72.0,45.1,38,29.88,10.0,SSE,5.8,-,N/A,,Clear,150,2012-09-17 01:35:00
8:55 PM,70.7,46.4,42,29.90,10.0,SSE,4.6,-,N/A,,Clear,150,2012-09-17 01:55:00
9:15 PM,69.3,47.3,45,29.90,10.0,SSE,5.8,-,N/A,,Clear,150,2012-09-17 02:15:00
9:35 PM,67.3,47.7,49,29.90,10.0,South,9.2,-,N/A,,Clear,170,2012-09-17 02:35:00
9:55 PM,67.5,48.0,50,29.90,10.0,South,12.7,-,N/A,,Clear,180,2012-09-17 02:55:00
10:15 PM,66.4,48.2,52,29.90,10.0,South,11.5,-,N/A,,Clear,180,2012-09-17 03:15:00
10:35 PM,66.2,48.6,53,29.91,10.0,South,9.2,-,N/A,,Clear,170,2012-09-17 03:35:00
10:55 PM,66.0,48.7,54,29.94,10.0,NNW,10.4,-,N/A,,Clear,330,2012-09-17 03:55:00
11:15 PM,65.1,48.7,55,29.95,10.0,West,4.6,-,N/A,,Clear,270,2012-09-17 04:15:00
11:35 PM,63.0,46.6,55,29.95,10.0,NNE,12.7,-,N/A,,Clear,20,2012-09-17 04:35:00
11:55 PM,61.5,44.6,54,29.96,10.0,North,11.5,-,N/A,,Clear,360,2012-09-17 04:55:00